Time;durP1;ratioP1;P1;durP2;ratioP2;P2;SDS_P1;SDS_P2;PMS_P1;PMS_P2;Temp;Humidity;BMP_temperature;BMP_pressure;BME280_temperature;BME280_humidity;BME280_pressure;Samples;Min_cycle;Max_cycle;Signal;HPM_P1;HPM_P2
2022/04/17 00:02:23;;;;;;;12.57;11.33;;;;;;;14.25;54.44;94377.88;5063036;28;20492;-77
2022/04/17 00:05:40;;;;;;;10.43;9.50;;;;;;;14.25;53.64;94368.16;5059118;28;20441;-77
2022/04/17 00:08:07;;;;;;;11.80;10.77;;;;;;;14.06;54.24;94367.38;5060852;28;20452;-78
2022/04/17 00:11:01;;;;;;;13.80;11.40;;;;;;;14.48;53.58;94365.81;5066116;28;20444;-76
2022/04/17 00:13:27;;;;;;;7.13;6.40;;;;;;;13.66;55.56;94364.47;5060796;28;20432;-76
2022/04/17 00:16:04;;;;;;;12.40;10.97;;;;;;;14.28;54.02;94368.72;5066744;28;20452;-76
2022/04/17 00:18:29;;;;;;;12.30;11.20;;;;;;;14.24;55.00;94369.16;5066955;28;20206;-77
2022/04/17 00:21:06;;;;;;;10.87;9.77;;;;;;;14.29;54.05;94363.25;5067598;28;20443;-76
2022/04/17 00:24:03;;;;;;;10.50;9.50;;;;;;;14.28;55.01;94369.50;5083856;28;20673;-76
2022/04/17 00:26:29;;;;;;;11.17;10.00;;;;;;;13.77;55.69;94358.47;5047695;28;20508;-76
2022/04/17 00:28:55;;;;;;;16.53;11.27;;;;;;;14.26;54.35;94353.16;5059044;28;20597;-76
2022/04/17 00:31:20;;;;;;;10.87;9.87;;;;;;;14.07;55.46;94347.13;5059180;28;20191;-76
2022/04/17 00:33:45;;;;;;;11.83;10.57;;;;;;;14.16;55.15;94327.38;5065359;28;20253;-75
2022/04/17 00:36:11;;;;;;;11.30;10.10;;;;;;;14.17;55.43;94336.06;5064833;28;20195;-76
2022/04/17 00:38:36;;;;;;;13.60;12.03;;;;;;;14.00;56.26;94343.78;5064560;28;20202;-75
2022/04/17 00:41:02;;;;;;;10.93;9.70;;;;;;;13.59;56.23;94355.84;5082249;28;20220;-76
2022/04/17 00:43:34;;;;;;;12.40;11.13;;;;;;;13.48;57.16;94339.75;5048552;28;20240;-76
2022/04/17 00:46:00;;;;;;;11.43;10.43;;;;;;;13.75;56.18;94352.59;5060813;28;20182;-75
2022/04/17 00:48:26;;;;;;;13.40;11.80;;;;;;;13.99;55.53;94344.81;5053501;28;20432;-76
2022/04/17 00:50:55;;;;;;;11.17;10.03;;;;;;;14.13;55.36;94340.97;5066205;28;20175;-76
2022/04/17 00:53:22;;;;;;;11.10;10.00;;;;;;;13.82;56.58;94328.84;5067019;28;20441;-76
2022/04/17 00:55:49;;;;;;;11.30;10.13;;;;;;;13.80;54.93;94325.66;5057898;28;20421;-76
2022/04/17 00:58:16;;;;;;;12.10;10.90;;;;;;;13.59;56.56;94321.66;5057802;28;21049;-76
2022/04/17 01:00:42;;;;;;;10.87;9.87;;;;;;;13.54;56.52;94332.03;5054919;28;20433;-76
2022/04/17 01:03:10;;;;;;;10.53;9.43;;;;;;;13.72;55.07;94324.13;5069707;28;21093;-76
2022/04/17 01:05:41;;;;;;;12.67;10.33;;;;;;;13.57;55.46;94335.03;5049723;28;20485;-76
2022/04/17 01:08:09;;;;;;;11.57;10.47;;;;;;;14.20;53.76;94331.16;5063919;28;20920;-76
2022/04/17 01:10:35;;;;;;;12.63;11.00;;;;;;;14.12;54.12;94336.75;5066516;28;20470;-77
2022/04/17 01:13:03;;;;;;;11.80;10.60;;;;;;;13.59;55.42;94321.66;5062831;28;20437;-76
2022/04/17 01:15:30;;;;;;;10.90;9.90;;;;;;;13.37;55.99;94324.72;5053740;28;20436;-76
2022/04/17 01:17:55;;;;;;;16.13;10.90;;;;;;;13.86;53.89;94315.03;5067356;28;20556;-76
2022/04/17 01:20:24;;;;;;;12.40;11.20;;;;;;;13.91;54.38;94318.84;5054058;28;20417;-76
2022/04/17 01:22:51;;;;;;;10.80;9.70;;;;;;;13.78;54.44;94317.97;5060882;28;20584;-76
2022/04/17 01:28:08;;;;;;;12.00;10.33;;;;;;;14.03;53.70;94320.47;5062990;28;20464;-77
2022/04/17 01:30:39;;;;;;;10.97;9.87;;;;;;;13.23;55.86;94315.34;5068806;28;20489;-76
2022/04/17 01:33:05;;;;;;;10.60;9.57;;;;;;;13.26;56.36;94326.25;5049242;28;20449;-76
2022/04/17 01:35:31;;;;;;;10.00;9.10;;;;;;;13.24;56.41;94324.84;5060635;28;20421;-76
2022/04/17 01:37:56;;;;;;;11.67;10.60;;;;;;;13.37;55.29;94321.28;5055639;28;20207;-75
2022/04/17 01:40:22;;;;;;;11.10;9.40;;;;;;;13.16;56.48;94319.88;5065691;28;20190;-76
2022/04/17 01:42:47;;;;;;;9.87;9.00;;;;;;;13.08;56.45;94319.13;5054018;28;20179;-76
2022/04/17 01:45:13;;;;;;;12.97;10.33;;;;;;;13.29;55.74;94323.16;5060454;28;20190;-75
2022/04/17 01:47:38;;;;;;;10.60;9.37;;;;;;;13.16;56.47;94314.63;5052223;28;20261;-75
2022/04/17 01:50:40;;;;;;;11.57;10.37;;;;;;;13.15;57.19;94311.19;5066487;28;20189;-75
2022/04/17 01:53:05;;;;;;;9.00;8.20;;;;;;;13.14;57.15;94314.84;5058015;28;20652;-75
2022/04/17 01:55:30;;;;;;;11.27;10.07;;;;;;;13.23;56.17;94312.72;5063796;28;20474;-76
2022/04/17 01:57:57;;;;;;;9.67;8.77;;;;;;;13.50;55.80;94309.84;5065032;28;20680;-76
2022/04/17 02:00:23;;;;;;;11.33;10.23;;;;;;;13.31;56.70;94312.47;5046678;28;20175;-76
2022/04/17 02:02:49;;;;;;;10.17;9.27;;;;;;;13.75;55.33;94317.59;5057803;28;20436;-76
2022/04/17 02:05:15;;;;;;;10.67;9.57;;;;;;;13.43;56.70;94318.59;5052133;28;20425;-76
2022/04/17 02:07:40;;;;;;;10.80;9.13;;;;;;;13.43;56.62;94320.41;5058504;28;20469;-76
2022/04/17 02:10:06;;;;;;;11.60;10.40;;;;;;;13.46;56.26;94323.41;5048348;28;20441;-75
2022/04/17 02:12:34;;;;;;;10.97;9.87;;;;;;;13.54;56.70;94311.00;5088402;28;20826;-77
2022/04/17 02:15:00;;;;;;;10.67;9.50;;;;;;;13.53;55.49;94299.69;5046265;28;20441;-76
2022/04/17 02:17:25;;;;;;;10.50;9.40;;;;;;;13.20;57.12;94292.97;5060848;28;20453;-76
2022/04/17 02:19:51;;;;;;;11.30;9.93;;;;;;;13.26;57.16;94301.75;5047507;28;20457;-76
2022/04/17 02:22:17;;;;;;;10.93;9.83;;;;;;;13.31;57.24;94296.69;5057978;28;20186;-76
2022/04/17 02:24:42;;;;;;;10.50;9.50;;;;;;;12.93;58.59;94284.53;5065136;28;20197;-76
2022/04/17 02:27:08;;;;;;;11.07;10.13;;;;;;;13.37;57.39;94280.03;5062726;28;20460;-77
2022/04/17 02:29:33;;;;;;;13.50;10.20;;;;;;;13.23;57.92;94283.81;5053719;28;20213;-76
2022/04/17 02:31:59;;;;;;;11.40;10.37;;;;;;;13.58;57.39;94283.22;5051426;28;20295;-76
2022/04/17 02:34:24;;;;;;;11.33;10.23;;;;;;;13.13;59.02;94294.84;5065136;28;20550;-76
2022/04/17 02:36:50;;;;;;;12.83;11.10;;;;;;;13.48;58.25;94281.13;5063997;28;20190;-76
2022/04/17 02:39:18;;;;;;;13.77;11.30;;;;;;;13.50;57.60;94286.16;5056721;28;20203;-76
2022/04/17 02:41:44;;;;;;;11.73;10.63;;;;;;;12.95;58.77;94281.69;5052438;28;20205;-76
2022/04/17 02:44:09;;;;;;;9.00;7.80;;;;;;;12.93;59.35;94279.28;5064780;28;20421;-76
2022/04/17 02:49:21;;;;;;;11.97;10.70;;;;;;;13.09;59.42;94281.34;5047438;28;20205;-76
2022/04/17 02:51:53;;;;;;;11.50;10.30;;;;;;;12.64;60.41;94278.16;5051249;28;20440;-75
2022/04/17 02:54:19;;;;;;;14.83;12.00;;;;;;;13.32;58.79;94276.47;5072882;28;20499;-76
2022/04/17 02:56:46;;;;;;;13.90;11.67;;;;;;;13.27;58.75;94285.00;5065669;28;20463;-76
2022/04/17 02:59:11;;;;;;;10.40;9.40;;;;;;;12.91;59.87;94275.28;5043817;28;20309;-76
2022/04/17 03:07:04;;;;;;;9.87;8.93;;;;;;;12.61;60.31;94273.34;5060712;28;20431;-75
2022/04/17 03:09:30;;;;;;;11.53;10.37;;;;;;;12.41;60.86;94281.41;5045299;28;20501;-76
2022/04/17 03:11:55;;;;;;;9.27;8.37;;;;;;;12.22;61.92;94270.81;5061224;28;20187;-76
2022/04/17 03:14:21;;;;;;;8.33;7.53;;;;;;;12.39;60.84;94267.69;5062633;28;20210;-76
2022/04/17 03:16:46;;;;;;;5.20;4.80;;;;;;;12.27;61.25;94255.25;5062535;28;20175;-75
2022/04/17 03:19:11;;;;;;;12.30;11.20;;;;;;;12.37;61.83;94259.19;5062749;28;20218;-75
2022/04/17 03:21:37;;;;;;;12.23;9.20;;;;;;;12.54;60.78;94255.03;5055538;28;20186;-75
2022/04/17 03:24:02;;;;;;;10.03;9.13;;;;;;;13.12;58.90;94276.66;5055945;28;20237;-75
2022/04/17 03:26:28;;;;;;;9.33;8.43;;;;;;;13.01;60.05;94271.13;5060856;28;20167;-76
2022/04/17 03:28:55;;;;;;;10.77;9.47;;;;;;;12.84;59.72;94275.34;5051044;28;20630;-75
2022/04/17 03:31:23;;;;;;;10.37;9.37;;;;;;;13.21;58.82;94267.47;5062345;28;20682;-76
2022/04/17 03:33:49;;;;;;;11.00;10.00;;;;;;;13.31;58.90;94275.66;5055369;28;20434;-75
2022/04/17 03:36:53;;;;;;;10.80;9.20;;;;;;;12.75;60.71;94271.38;5049815;28;20437;-75
2022/04/17 03:39:18;;;;;;;9.60;8.60;;;;;;;12.67;60.81;94270.66;5048573;28;20224;-76
2022/04/17 03:41:44;;;;;;;9.97;8.97;;;;;;;12.74;60.03;94272.41;5063848;28;20441;-76
2022/04/17 03:44:09;;;;;;;10.10;9.10;;;;;;;12.72;60.62;94270.00;5048977;28;20639;-75
2022/04/17 03:46:35;;;;;;;9.87;8.87;;;;;;;12.28;61.89;94277.03;5060843;28;20186;-75
2022/04/17 03:49:01;;;;;;;9.27;8.37;;;;;;;12.69;61.38;94278.28;5054633;28;20350;-75
2022/04/17 03:51:26;;;;;;;10.43;9.37;;;;;;;12.08;63.32;94278.00;5055107;28;20179;-75
2022/04/17 03:53:51;;;;;;;11.03;9.90;;;;;;;12.38;62.26;94276.56;5055048;28;20420;-75
2022/04/17 03:56:17;;;;;;;8.60;7.40;;;;;;;12.03;62.79;94284.91;5048665;28;20180;-75
2022/04/17 03:58:43;;;;;;;9.73;8.80;;;;;;;12.62;61.53;94283.63;5060688;28;20266;-75
2022/04/17 04:01:18;;;;;;;10.47;9.47;;;;;;;12.73;61.67;94283.91;5060560;28;20185;-75
2022/04/17 04:03:43;;;;;;;10.33;9.43;;;;;;;12.72;61.41;94284.97;5068494;28;20166;-76
2022/04/17 04:06:10;;;;;;;11.73;9.57;;;;;;;12.92;60.19;94277.69;5055588;28;20467;-76
2022/04/17 04:08:35;;;;;;;10.90;9.90;;;;;;;12.83;60.85;94285.03;5063333;28;20166;-76
2022/04/17 04:11:11;;;;;;;10.40;9.43;;;;;;;12.97;60.97;94280.44;5068451;28;20474;-75
2022/04/17 04:13:37;;;;;;;10.03;8.97;;;;;;;12.68;62.01;94277.50;5061430;28;20209;-76
2022/04/17 04:16:03;;;;;;;10.40;9.37;;;;;;;12.90;62.17;94274.50;5067353;28;20800;-75
2022/04/17 04:18:29;;;;;;;10.47;9.47;;;;;;;12.30;63.54;94269.75;5063688;28;20476;-76
2022/04/17 04:20:58;;;;;;;11.63;10.43;;;;;;;12.86;62.75;94278.53;5063788;28;20198;-75
2022/04/17 04:23:24;;;;;;;10.90;9.60;;;;;;;12.88;62.19;94281.75;5080692;28;20425;-76
2022/04/17 04:25:49;;;;;;;10.80;9.80;;;;;;;12.84;62.14;94278.78;5063053;28;20464;-76
2022/04/17 04:31:12;;;;;;;11.20;9.70;;;;;;;12.52;64.63;94280.69;5061803;28;20233;-76
2022/04/17 04:33:41;;;;;;;11.17;10.00;;;;;;;12.78;63.13;94276.22;5052148;28;20841;-76
2022/04/17 04:36:10;;;;;;;11.30;10.30;;;;;;;12.86;63.92;94278.53;5062686;28;20540;-76
2022/04/17 04:38:37;;;;;;;10.97;9.97;;;;;;;12.74;63.52;94285.53;5052531;28;20847;-76
2022/04/17 04:41:05;;;;;;;10.97;8.97;;;;;;;12.53;64.37;94279.66;5060672;28;20468;-75
2022/04/17 04:43:31;;;;;;;11.73;10.47;;;;;;;12.45;65.24;94270.25;5050907;28;20544;-76
2022/04/17 04:46:06;;;;;;;12.37;11.07;;;;;;;12.82;63.82;94277.38;5066161;28;20429;-76
2022/04/17 04:51:28;;;;;;;14.60;10.50;;;;;;;12.54;64.89;94272.56;5052915;28;20436;-76
2022/04/17 04:53:56;;;;;;;13.03;11.70;;;;;;;12.58;64.48;94268.53;5063891;28;20435;-76
2022/04/17 04:56:22;;;;;;;11.43;10.17;;;;;;;12.31;64.78;94271.34;5073508;28;20432;-76
2022/04/17 04:58:48;;;;;;;14.00;11.70;;;;;;;12.39;66.35;94270.31;5059650;28;20458;-75
2022/04/17 05:01:13;;;;;;;12.47;11.17;;;;;;;12.81;65.48;94278.41;5066428;28;20455;-76
2022/04/17 05:03:40;;;;;;;12.97;11.67;;;;;;;12.08;67.16;94267.50;5060511;28;20211;-75
2022/04/17 05:06:07;;;;;;;11.67;10.47;;;;;;;12.70;65.50;94267.59;5058013;28;20600;-76
2022/04/17 05:08:33;;;;;;;13.57;12.03;;;;;;;12.79;65.27;94273.38;5066189;28;20452;-75
2022/04/17 05:11:00;;;;;;;14.00;12.33;;;;;;;12.69;65.99;94273.03;5062677;28;20424;-76
2022/04/17 05:13:31;;;;;;;11.50;10.33;;;;;;;12.29;67.48;94274.22;5054050;28;20509;-75
2022/04/17 05:15:57;;;;;;;12.87;11.43;;;;;;;12.52;67.28;94266.75;5054694;28;20442;-80
2022/04/17 05:18:22;;;;;;;11.10;10.00;;;;;;;12.08;67.16;94259.63;5057588;28;20445;-79
2022/04/17 05:20:48;;;;;;;11.40;10.30;;;;;;;12.29;66.78;94263.72;5067431;28;20182;-80
2022/04/17 05:23:26;;;;;;;13.20;11.90;;;;;;;11.84;68.19;94269.03;5053471;28;20213;-79
2022/04/17 05:25:54;;;;;;;13.77;12.30;;;;;;;12.60;65.90;94264.66;5055309;28;20966;-80
2022/04/17 05:28:20;;;;;;;13.00;11.80;;;;;;;12.66;66.18;94271.66;5060022;28;20436;-80
2022/04/17 05:31:07;;;;;;;14.20;12.90;;;;;;;12.68;66.02;94267.00;5047546;28;20465;-79
2022/04/17 05:33:32;;;;;;;13.87;11.90;;;;;;;12.55;66.05;94261.06;5060002;28;20446;-79
2022/04/17 05:35:58;;;;;;;14.37;13.00;;;;;;;12.74;65.69;94267.16;5050847;28;20783;-79
2022/04/17 05:38:23;;;;;;;13.07;11.77;;;;;;;12.63;64.14;94264.22;5062744;28;20214;-79
2022/04/17 05:40:51;;;;;;;13.07;11.77;;;;;;;12.42;66.80;94270.66;5054548;28;20180;-80
2022/04/17 05:43:17;;;;;;;14.53;12.33;;;;;;;12.55;65.53;94261.06;5081514;28;20184;-79
2022/04/17 05:45:44;;;;;;;13.80;12.40;;;;;;;12.53;66.27;94269.16;5055910;28;20472;-78
2022/04/17 05:48:09;;;;;;;14.30;12.20;;;;;;;12.57;66.73;94267.72;5066276;28;20421;-79
2022/04/17 05:50:37;;;;;;;12.07;10.97;;;;;;;12.80;66.15;94272.34;5060113;28;20525;-80
2022/04/17 05:53:03;;;;;;;14.23;12.07;;;;;;;12.76;66.34;94273.00;5052595;28;20206;-80
2022/04/17 05:55:29;;;;;;;11.53;10.33;;;;;;;12.96;65.40;94267.56;5045371;28;20429;-80
2022/04/17 05:57:54;;;;;;;14.50;11.27;;;;;;;12.94;64.99;94270.41;5052231;28;20187;-79
2022/04/17 06:00:20;;;;;;;13.10;11.90;;;;;;;13.29;64.56;94261.91;5048143;28;20533;-79
2022/04/17 06:02:48;;;;;;;13.37;11.97;;;;;;;13.38;64.70;94260.63;5047735;28;20267;-79
2022/04/17 06:05:15;;;;;;;11.07;9.80;;;;;;;13.18;64.88;94263.44;5054298;28;20179;-79
2022/04/17 06:07:40;;;;;;;10.60;9.70;;;;;;;13.20;65.38;94257.97;5049076;28;20575;-79
2022/04/17 06:10:10;;;;;;;10.67;9.67;;;;;;;13.04;65.69;94260.19;5054336;28;20413;-79
2022/04/17 06:12:37;;;;;;;13.13;11.53;;;;;;;13.11;65.78;94252.22;5058754;28;20174;-80
2022/04/17 06:15:05;;;;;;;13.50;12.20;;;;;;;13.16;64.86;94249.72;5066281;28;20432;-79
2022/04/17 06:17:42;;;;;;;10.87;9.87;;;;;;;13.29;64.30;94246.94;5062695;28;20511;-78
2022/04/17 06:20:12;;;;;;;12.83;11.70;;;;;;;12.92;65.80;94256.69;5045306;28;20497;-78
2022/04/17 06:22:38;;;;;;;12.57;11.47;;;;;;;12.77;66.30;94248.38;5058467;28;20435;-80
2022/04/17 06:25:05;;;;;;;14.10;12.00;;;;;;;12.48;67.91;94250.63;5053655;28;20528;-79
2022/04/17 06:27:44;;;;;;;13.40;12.10;;;;;;;13.02;65.84;94256.97;5065404;28;20193;-79
2022/04/17 06:30:12;;;;;;;12.97;11.57;;;;;;;12.65;66.54;94246.44;5064551;28;20425;-79
2022/04/17 06:32:42;;;;;;;12.47;11.17;;;;;;;12.60;67.70;94246.28;5057006;28;20479;-79
2022/04/17 06:35:09;;;;;;;11.73;10.50;;;;;;;12.29;68.25;94253.22;5058887;28;21089;-78
2022/04/17 06:37:55;;;;;;;11.83;10.20;;;;;;;12.51;67.62;94250.19;5062081;28;20425;-78
2022/04/17 06:40:22;;;;;;;11.40;10.40;;;;;;;11.37;71.69;94255.38;5045532;28;20450;-78
2022/04/17 06:42:49;;;;;;;11.53;10.40;;;;;;;12.42;68.60;94251.50;5056657;28;20438;-78
2022/04/17 06:45:16;;;;;;;12.47;11.10;;;;;;;12.44;68.06;94249.44;5055107;28;20433;-78
2022/04/17 06:47:42;;;;;;;12.90;9.87;;;;;;;12.09;69.13;94248.13;5054144;28;20457;-79
2022/04/17 06:50:08;;;;;;;11.73;10.57;;;;;;;12.36;69.06;94252.34;5054231;28;20434;-78
2022/04/17 06:52:34;;;;;;;14.27;11.80;;;;;;;12.06;69.03;94258.22;5048165;28;20433;-79
2022/04/17 06:54:59;;;;;;;14.10;12.70;;;;;;;12.01;70.22;94260.69;5044884;28;20258;-78
2022/04/17 06:57:33;;;;;;;19.47;17.43;;;;;;;12.22;69.28;94260.34;5045399;28;20183;-80
2022/04/17 07:00:04;;;;;;;17.00;15.10;;;;;;;12.22;70.35;94254.28;5051111;28;20206;-78
2022/04/17 07:02:29;;;;;;;25.17;22.50;;;;;;;12.14;69.16;94254.53;5065112;28;20429;-78
2022/04/17 07:04:55;;;;;;;28.53;25.53;;;;;;;12.03;69.34;94248.19;5052427;28;20441;-78
2022/04/17 07:07:22;;;;;;;24.67;22.10;;;;;;;11.73;70.41;94253.97;5054082;28;20175;-78
2022/04/17 07:09:47;;;;;;;23.23;20.77;;;;;;;12.00;69.77;94259.09;5054853;28;20179;-78
2022/04/17 07:12:16;;;;;;;17.40;15.60;;;;;;;12.23;67.82;94255.88;5051001;28;20963;-78
2022/04/17 07:14:52;;;;;;;15.73;14.13;;;;;;;12.26;68.63;94258.88;5053559;28;20211;-78
2022/04/17 07:17:20;;;;;;;13.80;12.50;;;;;;;12.16;68.79;94261.19;5047963;28;20445;-78
2022/04/17 07:19:46;;;;;;;11.80;10.60;;;;;;;12.25;68.45;94257.25;5051111;28;20507;-78
2022/04/17 07:22:13;;;;;;;13.57;11.13;;;;;;;12.35;68.22;94255.97;5046416;28;20813;-78
2022/04/17 07:24:43;;;;;;;16.93;14.20;;;;;;;12.46;68.02;94263.97;5058393;28;20437;-79
2022/04/17 07:27:45;;;;;;;15.33;13.83;;;;;;;12.74;67.33;94264.53;5051050;28;20952;-77
2022/04/17 07:30:19;;;;;;;17.07;13.40;;;;;;;12.27;67.94;94262.31;5049337;28;20425;-79
2022/04/17 07:32:48;;;;;;;14.80;13.40;;;;;;;11.83;69.62;94259.56;5050263;28;20962;-78
2022/04/17 07:35:15;;;;;;;13.83;12.53;;;;;;;12.03;69.58;94264.72;5048977;28;20429;-78
2022/04/17 07:37:46;;;;;;;11.40;10.37;;;;;;;11.85;69.81;94256.72;5046042;28;20444;-79
2022/04/17 07:40:17;;;;;;;9.70;8.70;;;;;;;12.34;68.18;94259.66;5057931;28;20430;-78
2022/04/17 07:42:43;;;;;;;9.53;8.63;;;;;;;12.39;68.73;94267.69;5051723;28;20438;-79
2022/04/17 07:45:10;;;;;;;9.63;8.73;;;;;;;12.69;66.96;94263.38;5051085;28;20433;-78
2022/04/17 07:47:36;;;;;;;9.10;8.30;;;;;;;13.04;66.12;94262.00;5047863;28;20435;-78
2022/04/17 07:50:02;;;;;;;7.90;7.23;;;;;;;12.43;67.31;94255.72;5049324;28;20498;-78
2022/04/17 07:52:28;;;;;;;11.83;8.40;;;;;;;12.41;67.90;94252.53;5051705;28;20191;-79
2022/04/17 07:55:59;;;;;;;;;;;;;;;;;;;;;
2022/04/17 07:58:34;;;;;;;8.40;7.80;;;;;;;12.20;68.71;94253.69;5050395;28;20274;-78
2022/04/17 08:02:01;;;;;;;7.67;6.97;;;;;;;12.38;68.45;94242.44;5056781;28;20434;-78
2022/04/17 08:04:27;;;;;;;10.47;9.47;;;;;;;12.57;68.35;94244.09;5058895;28;20441;-78
2022/04/17 08:06:54;;;;;;;9.00;8.10;;;;;;;12.72;67.45;94250.81;5055858;28;20451;-78
2022/04/17 08:09:20;;;;;;;10.73;8.80;;;;;;;12.28;68.03;94242.94;5055510;28;20464;-77
2022/04/17 08:11:51;;;;;;;11.13;10.00;;;;;;;12.99;67.38;94249.50;5054085;28;20430;-77
2022/04/17 08:14:18;;;;;;;10.70;8.70;;;;;;;12.63;67.71;94240.59;5059919;28;20441;-78
2022/04/17 08:17:29;;;;;;;7.77;7.07;;;;;;;12.61;68.10;94245.25;5070569;28;20424;-76
2022/04/17 08:19:32;;;;;;;9.10;8.37;;;;;;;12.08;68.97;94245.69;5063440;28;20504;-77
2022/04/17 08:21:58;;;;;;;7.50;6.80;;;;;;;12.10;69.29;94238.41;5062779;28;20452;-78
2022/04/17 08:24:24;;;;;;;6.57;5.97;;;;;;;12.85;66.04;94242.81;5058981;28;20417;-77
2022/04/17 08:26:49;;;;;;;7.30;6.70;;;;;;;13.11;65.27;94243.53;5054632;28;20468;-77
2022/04/17 08:29:17;;;;;;;6.67;6.17;;;;;;;13.36;64.19;94240.84;5057690;28;20247;-77
2022/04/17 08:31:42;;;;;;;7.13;6.50;;;;;;;12.26;68.15;94243.16;5061386;28;20230;-77
2022/04/17 08:34:08;;;;;;;6.77;6.17;;;;;;;12.00;69.17;94240.72;5056772;28;20431;-77
2022/04/17 08:36:33;;;;;;;8.17;6.27;;;;;;;12.49;67.97;94242.53;5056108;28;20669;-77
2022/04/17 08:38:59;;;;;;;8.77;7.77;;;;;;;12.53;68.35;94236.88;5058968;28;20200;-76
2022/04/17 08:41:27;;;;;;;8.37;7.63;;;;;;;12.44;68.13;94239.75;5057344;28;20178;-77
2022/04/17 08:43:52;;;;;;;9.40;8.50;;;;;;;12.48;68.70;94234.88;5063608;28;20174;-78
2022/04/17 08:46:18;;;;;;;7.50;6.80;;;;;;;12.48;68.73;94240.94;5094145;28;20928;-78
2022/04/17 08:48:44;;;;;;;7.50;6.80;;;;;;;11.98;70.46;94234.91;5060528;28;20177;-79
2022/04/17 08:51:10;;;;;;;5.83;5.33;;;;;;;12.74;67.80;94249.56;5065518;28;20183;-79
2022/04/17 08:53:36;;;;;;;6.40;5.80;;;;;;;12.87;67.12;94249.44;5067247;28;20451;-79
2022/04/17 08:56:03;;;;;;;5.93;5.40;;;;;;;12.93;67.02;94245.13;5067415;28;20540;-79
2022/04/17 08:58:29;;;;;;;6.37;5.77;;;;;;;12.91;66.17;94244.56;5064414;28;20464;-79
2022/04/17 09:00:55;;;;;;;8.00;5.60;;;;;;;13.70;63.60;94231.50;5066787;28;20826;-79
2022/04/17 09:03:20;;;;;;;5.70;5.20;;;;;;;13.65;63.36;94234.78;5067723;28;20178;-78
2022/04/17 09:05:47;;;;;;;5.80;5.20;;;;;;;13.99;63.06;94229.06;5054734;28;20191;-79
2022/04/17 09:08:13;;;;;;;6.80;6.20;;;;;;;13.72;63.47;94223.41;5048363;28;20187;-79
2022/04/17 09:10:38;;;;;;;6.20;5.70;;;;;;;14.00;62.67;94233.28;5055209;28;20470;-78
2022/04/17 09:13:04;;;;;;;5.93;5.47;;;;;;;13.83;62.34;94231.31;5085505;28;20421;-78
2022/04/17 09:15:35;;;;;;;6.27;5.63;;;;;;;13.92;62.91;94229.16;5047984;28;20201;-78
2022/04/17 09:18:01;;;;;;;5.80;5.30;;;;;;;14.22;62.83;94223.84;5058703;28;20186;-78
2022/04/17 09:20:28;;;;;;;6.33;5.33;;;;;;;14.67;61.39;94221.72;5062335;28;20433;-78
2022/04/17 09:23:00;;;;;;;5.03;4.70;;;;;;;14.83;61.54;94218.38;5053557;28;20472;-77
2022/04/17 09:25:26;;;;;;;6.90;6.30;;;;;;;14.83;60.94;94221.81;5060549;28;20434;-75
2022/04/17 09:27:59;;;;;;;5.93;5.50;;;;;;;14.93;59.61;94213.34;5064202;28;20519;-76
2022/04/17 09:30:33;;;;;;;6.10;5.60;;;;;;;14.87;60.07;94203.69;5045457;28;20528;-76
2022/04/17 09:33:02;;;;;;;5.63;5.13;;;;;;;14.94;59.22;94199.09;5072390;28;20514;-76
2022/04/17 09:35:28;;;;;;;5.67;5.13;;;;;;;14.87;60.32;94197.63;5066832;28;20436;-79
2022/04/17 09:37:58;;;;;;;6.17;5.50;;;;;;;15.06;59.52;94191.16;5062322;28;20426;-77
2022/04/17 09:40:25;;;;;;;5.93;4.90;;;;;;;15.21;58.52;94188.03;5044922;28;20642;-76
2022/04/17 09:43:09;;;;;;;7.07;6.00;;;;;;;15.11;58.02;94183.38;5046700;28;20447;-76
2022/04/17 09:46:05;;;;;;;4.93;4.53;;;;;;;14.50;61.22;94182.09;5046972;28;20433;-78
2022/04/17 09:48:36;;;;;;;4.77;4.37;;;;;;;14.41;60.22;94179.00;5052302;28;20413;-79
2022/04/17 09:51:19;;;;;;;6.00;5.40;;;;;;;15.17;58.91;94171.09;5065797;28;20451;-78
2022/04/17 09:54:05;;;;;;;5.13;4.70;;;;;;;14.71;59.93;94178.88;5065496;28;20421;-78
2022/04/17 09:56:41;;;;;;;6.33;5.50;;;;;;;15.48;57.27;94172.47;5046059;28;20494;-77
2022/04/17 09:59:21;;;;;;;6.03;5.53;;;;;;;14.87;58.95;94171.28;5062463;28;20476;-79
2022/04/17 10:01:52;;;;;;;7.40;6.70;;;;;;;14.79;59.83;94177.72;5051522;28;20441;-78
2022/04/17 10:04:22;;;;;;;8.33;6.60;;;;;;;14.60;60.65;94175.22;5089964;28;20441;-77
2022/04/17 10:06:52;;;;;;;5.93;5.33;;;;;;;14.36;60.93;94177.06;5051752;28;20434;-78
2022/04/17 10:09:18;;;;;;;5.40;5.00;;;;;;;14.48;61.22;94165.72;5054190;28;20425;-78
2022/04/17 10:11:44;;;;;;;7.40;5.20;;;;;;;14.06;61.10;94162.16;5051632;28;20440;-77
2022/04/17 10:14:10;;;;;;;5.53;5.07;;;;;;;14.18;62.39;94158.75;5048885;28;20421;-77
2022/04/17 10:16:41;;;;;;;6.07;5.57;;;;;;;14.56;61.70;94160.88;5053189;28;20471;-78
2022/04/17 10:19:19;;;;;;;4.50;4.10;;;;;;;14.61;59.35;94158.41;5050237;28;20196;-78
2022/04/17 10:21:46;;;;;;;4.50;4.10;;;;;;;14.21;60.61;94148.56;5061020;28;20494;-76
2022/04/17 10:24:16;;;;;;;4.80;4.47;;;;;;;13.52;63.83;94150.06;5059395;28;20506;-77
2022/04/17 10:26:52;;;;;;;4.37;4.00;;;;;;;13.76;62.46;94143.03;5062259;28;20800;-77
2022/04/17 10:29:36;;;;;;;4.00;3.70;;;;;;;13.77;62.66;94153.34;5062537;28;20923;-78
2022/04/17 10:32:33;;;;;;;5.83;5.23;;;;;;;13.64;63.02;94158.78;5051289;28;20471;-78
2022/04/17 10:34:58;;;;;;;9.37;8.47;;;;;;;12.91;66.48;94160.53;5057611;28;20426;-77
2022/04/17 10:38:01;;;;;;;9.67;8.73;;;;;;;12.38;66.95;94163.72;5068008;28;20930;-77
2022/04/17 10:40:27;;;;;;;9.20;8.40;;;;;;;12.18;69.52;94167.34;5066035;28;20206;-79
2022/04/17 10:42:55;;;;;;;10.17;9.17;;;;;;;11.90;69.13;94155.47;5056454;28;20417;-79
2022/04/17 10:45:23;;;;;;;11.87;10.03;;;;;;;11.88;68.37;94147.00;5061597;28;20178;-78
2022/04/17 10:48:12;;;;;;;13.60;12.20;;;;;;;12.06;67.26;94146.25;5047901;28;20402;-78
2022/04/17 10:50:52;;;;;;;18.87;15.17;;;;;;;11.45;70.04;94152.94;5056716;28;20576;-79
2022/04/17 10:53:24;;;;;;;21.40;17.33;;;;;;;11.79;68.56;94148.28;5047435;28;20422;-77
2022/04/17 10:56:09;;;;;;;19.97;17.57;;;;;;;12.06;68.32;94151.50;5045821;28;20848;-78
2022/04/17 10:58:49;;;;;;;22.03;19.60;;;;;;;11.52;70.71;94148.47;5073119;28;20460;-78
2022/04/17 11:01:15;;;;;;;22.77;20.50;;;;;;;11.93;68.92;94137.72;5051704;28;20531;-79
2022/04/17 11:03:52;;;;;;;23.10;20.43;;;;;;;11.58;69.13;94133.72;5060279;28;20432;-77
2022/04/17 11:06:32;;;;;;;23.07;19.63;;;;;;;12.14;67.95;94145.19;5045466;28;20425;-78
2022/04/17 11:09:19;;;;;;;17.63;15.73;;;;;;;11.56;68.88;94132.34;5064507;28;20396;-78
2022/04/17 11:11:45;;;;;;;15.47;11.30;;;;;;;11.25;70.74;94136.56;5072908;28;20445;-78
2022/04/17 11:14:19;;;;;;;16.57;13.67;;;;;;;11.22;71.27;94131.75;5086051;28;20967;-78
2022/04/17 11:16:58;;;;;;;12.93;8.67;;;;;;;11.07;70.57;94130.22;5076631;28;20181;-78
2022/04/17 11:19:29;;;;;;;8.93;8.03;;;;;;;10.69;71.87;94132.81;5065424;28;20467;-79
2022/04/17 11:22:04;;;;;;;10.53;8.03;;;;;;;10.69;71.60;94143.28;5064753;28;20975;-78
2022/04/17 11:24:55;;;;;;;9.13;8.33;;;;;;;11.37;69.63;94141.94;5065329;28;20507;-77
2022/04/17 11:27:49;;;;;;;9.10;8.20;;;;;;;11.37;68.70;94145.34;5055361;28;20513;-79
2022/04/17 11:30:14;;;;;;;8.63;7.83;;;;;;;10.92;70.52;94138.34;5061503;28;20439;-77
2022/04/17 11:32:40;;;;;;;8.60;7.87;;;;;;;11.85;66.99;94152.66;5043961;28;20433;-79
2022/04/17 11:35:11;;;;;;;8.90;8.20;;;;;;;11.77;67.66;94150.31;5063886;28;20190;-78
2022/04/17 11:37:37;;;;;;;10.50;9.00;;;;;;;12.47;65.91;94149.31;5055807;28;20250;-78
2022/04/17 11:40:16;;;;;;;9.40;8.00;;;;;;;11.49;67.46;94148.88;5063873;28;20492;-78
2022/04/17 11:42:49;;;;;;;10.57;9.60;;;;;;;11.03;68.67;94144.72;5063035;28;21020;-79
2022/04/17 11:45:35;;;;;;;9.53;8.70;;;;;;;11.43;68.34;94144.50;5069657;28;20409;-78
2022/04/17 11:48:07;;;;;;;9.37;8.40;;;;;;;11.57;67.92;94144.41;5061931;28;20774;-79
2022/04/17 11:50:33;;;;;;;9.07;7.97;;;;;;;11.86;66.26;94148.25;5051181;28;20439;-79
2022/04/17 11:53:05;;;;;;;8.80;8.03;;;;;;;11.11;68.74;94147.09;5068324;28;20413;-79
2022/04/17 11:55:34;;;;;;;12.57;8.80;;;;;;;11.56;67.36;94153.31;5067928;28;20462;-79
2022/04/17 11:58:00;;;;;;;7.20;6.50;;;;;;;11.08;68.22;94136.28;5069581;28;20419;-78